createdAt,value
2023-03-11T10:28:05.571Z,74.62
2023-03-11T10:30:41.103Z,70.82
2023-03-11T10:33:33.586Z,73.40
2023-03-11T10:36:06.454Z,66.27
2023-03-11T10:38:37.265Z,65.70
2023-03-11T10:41:12.616Z,69.05
2023-03-11T10:43:45.010Z,65.49
2023-03-11T10:46:31.700Z,71.62
2023-03-11T10:48:58.157Z,67.50
2023-03-11T10:51:34.252Z,62.67
2023-03-11T10:54:02.246Z,66.43
2023-03-11T10:56:31.055Z,61.91
2023-03-11T10:58:58.157Z,59.67
2023-03-11T11:01:25.459Z,57.31
2023-03-11T11:03:56.950Z,62.08
2023-03-11T11:06:27.643Z,66.83
2023-03-11T11:09:19.169Z,65.35
2023-03-11T11:12:14.602Z,58.49
2023-03-11T11:14:52.495Z,57.96
2023-03-11T11:17:26.746Z,56.48
2023-03-11T11:19:54.346Z,58.73
2023-03-11T11:22:23.007Z,56.18
2023-03-11T11:24:52.494Z,57.81
2023-03-11T11:27:24.897Z,52.83
2023-03-11T11:30:09.588Z,54.04
2023-03-11T11:32:37.278Z,49.31
2023-03-11T11:35:05.651Z,50.19
2023-03-11T11:37:35.728Z,49.41
2023-03-11T11:40:11.524Z,53.48
2023-03-11T11:42:40.493Z,50.54
2023-03-11T11:45:15.849Z,49.52
2023-03-11T11:47:48.452Z,49.85
2023-03-11T11:50:26.728Z,53.61
2023-03-11T11:53:00.721Z,51.15
2023-03-11T11:55:30.502Z,51.68
2023-03-11T11:57:57.447Z,56.26
2023-03-11T12:01:03.408Z,63.46
2023-03-11T12:03:57.554Z,54.39
2023-03-11T12:06:50.494Z,53.02
2023-03-11T12:09:37.820Z,53.81
2023-03-11T12:12:16.317Z,55.57
2023-03-11T12:15:16.449Z,52.71
2023-03-11T12:17:46.592Z,50.14
2023-03-11T12:20:22.953Z,49.81
2023-03-11T12:23:07.382Z,49.17
2023-03-11T12:25:39.451Z,47.08
2023-03-11T12:28:20.266Z,48.40
2023-03-11T12:30:54.243Z,52.35
2023-03-11T12:33:27.700Z,51.50
2023-03-11T12:35:56.940Z,50.90
2023-03-11T12:38:39.933Z,48.31
2023-03-11T12:41:15.252Z,50.95
2023-03-11T12:43:41.612Z,48.11
2023-03-11T12:46:10.956Z,46.57
2023-03-11T12:48:55.978Z,54.03
2023-03-11T12:51:34.735Z,53.11
2023-03-11T12:54:39.415Z,60.59
2023-03-11T12:57:17.777Z,57.29
2023-03-11T13:00:17.430Z,69.04
2023-03-11T13:03:05.671Z,66.21
2023-03-11T13:05:41.215Z,73.35
2023-03-11T13:08:15.730Z,65.61
2023-03-11T13:10:45.147Z,65.41
2023-03-11T13:13:30.146Z,64.46
2023-03-11T13:15:57.660Z,62.32
2023-03-11T13:18:32.833Z,62.56
2023-03-11T13:21:01.595Z,57.72
2023-03-11T13:23:34.212Z,60.96
2023-03-11T13:26:09.742Z,69.55
2023-03-11T13:29:01.742Z,62.87
2023-03-11T13:31:49.683Z,72.17
2023-03-11T13:34:37.961Z,69.10
2023-03-11T13:37:34.676Z,71.51
2023-03-11T13:40:25.969Z,74.21
2023-03-11T13:42:56.767Z,71.12
2023-03-11T13:45:30.353Z,70.72
2023-03-11T13:48:01.599Z,71.95
2023-03-11T13:50:35.238Z,69.75
2023-03-11T13:53:07.595Z,72.69
2023-03-11T13:55:43.007Z,71.02
2023-03-11T13:58:35.486Z,66.65
2023-03-11T14:01:02.490Z,63.20
2023-03-11T14:03:36.369Z,72.33
2023-03-11T14:06:06.524Z,68.34
2023-03-11T14:08:37.649Z,74.09
2023-03-11T14:11:17.026Z,66.64
2023-03-11T14:13:43.340Z,64.58
2023-03-11T14:16:21.355Z,62.43
2023-03-11T14:19:01.020Z,62.26
2023-03-11T14:21:27.859Z,62.44
2023-03-11T14:23:55.863Z,67.55
2023-03-11T14:26:31.748Z,63.21
2023-03-11T14:29:07.199Z,68.22
2023-03-11T14:31:38.675Z,61.96
2023-03-11T14:34:20.036Z,59.99
2023-03-11T14:36:52.443Z,64.15
2023-03-11T14:39:33.607Z,66.80
2023-03-11T14:42:06.214Z,63.28
2023-03-11T14:44:36.308Z,65.98
2023-03-11T14:47:38.748Z,64.41
2023-03-11T14:50:09.982Z,66.20
2023-03-11T14:52:51.593Z,61.15
2023-03-11T14:55:40.416Z,62.77
2023-03-11T14:58:17.174Z,61.52
2023-03-11T15:00:50.018Z,68.14
2023-03-11T15:03:28.892Z,63.99
2023-03-11T15:05:59.592Z,63.95
2023-03-11T15:08:30.458Z,68.27
2023-03-11T15:11:11.935Z,61.98
2023-03-11T15:13:40.972Z,65.38
2023-03-11T15:16:28.731Z,63.13
2023-03-11T15:18:55.358Z,65.06
2023-03-11T15:21:24.088Z,64.11
2023-03-11T15:23:52.045Z,60.56
2023-03-11T15:26:21.708Z,60.68
2023-03-11T15:28:54.754Z,64.20
2023-03-11T15:31:21.145Z,59.17
2023-03-11T15:33:48.517Z,58.56
2023-03-11T15:36:33.246Z,57.41
2023-03-11T15:39:17.577Z,59.97
2023-03-11T15:41:46.584Z,61.12
2023-03-11T15:44:24.504Z,64.15
2023-03-11T15:46:50.930Z,62.64
2023-03-11T15:49:17.312Z,61.25
2023-03-11T15:51:43.645Z,60.35
2023-03-11T15:54:10.077Z,59.63
2023-03-11T15:56:37.006Z,59.14
2023-03-11T15:59:03.536Z,58.58
2023-03-11T16:01:30.299Z,62.65
2023-03-11T16:03:57.624Z,61.62
2023-03-11T16:06:24.072Z,61.46
2023-03-11T16:08:50.490Z,61.17
2023-03-11T16:11:18.710Z,58.42
2023-03-11T16:13:45.296Z,62.31
2023-03-11T16:16:16.459Z,59.40
2023-03-11T16:18:42.937Z,57.95
2023-03-11T16:21:15.510Z,56.15
2023-03-11T16:23:51.607Z,58.50
2023-03-11T16:26:19.668Z,60.28
2023-03-11T16:28:46.014Z,58.97
2023-03-11T16:31:12.432Z,62.21
2023-03-11T16:33:38.900Z,59.59
2023-03-11T16:36:05.853Z,58.10
2023-03-11T16:38:43.915Z,57.18
2023-03-11T16:41:10.583Z,57.82
2023-03-11T16:43:36.983Z,58.64
2023-03-11T16:46:03.528Z,58.54
2023-03-11T16:48:30.113Z,58.12
2023-03-11T16:50:56.597Z,57.71
2023-03-11T16:53:25.080Z,57.73
2023-03-11T16:55:52.861Z,57.93
2023-03-11T16:58:20.038Z,59.73
2023-03-11T17:00:46.640Z,61.49
2023-03-11T17:03:15.280Z,60.49
2023-03-11T17:05:42.589Z,60.48
2023-03-11T17:08:09.534Z,60.16
2023-03-11T17:10:39.229Z,60.76
2023-03-11T17:13:07.170Z,60.50
2023-03-11T17:15:35.229Z,61.43
2023-03-11T17:18:02.684Z,61.43
2023-03-11T17:20:29.114Z,63.06
2023-03-11T17:22:55.600Z,64.91
2023-03-11T17:25:22.351Z,65.19
2023-03-11T17:27:49.261Z,66.85
2023-03-11T17:30:24.239Z,67.12
2023-03-11T17:32:53.622Z,67.42
2023-03-11T17:35:20.026Z,67.35
2023-03-11T17:37:46.460Z,68.36
2023-03-11T17:40:12.845Z,67.95
2023-03-11T17:42:39.626Z,68.04
2023-03-11T17:45:06.916Z,69.77
2023-03-11T17:47:33.485Z,71.44
2023-03-11T17:50:00.106Z,71.38
2023-03-11T17:52:26.689Z,71.59
2023-03-11T17:54:53.465Z,71.34
2023-03-11T17:57:19.931Z,72.41
2023-03-11T17:59:49.890Z,73.79
2023-03-11T18:02:16.494Z,73.67
2023-03-11T18:04:45.919Z,74.70
2023-03-11T18:07:12.908Z,76.11
2023-03-11T18:09:39.238Z,77.00
2023-03-11T18:12:06.761Z,77.56
2023-03-11T18:14:33.327Z,77.52
2023-03-11T18:16:59.817Z,79.41
2023-03-11T18:19:26.189Z,80.16
2023-03-11T18:21:52.581Z,80.97
2023-03-11T18:24:18.980Z,82.02
2023-03-11T18:26:45.390Z,82.12
2023-03-11T18:29:11.778Z,82.16
2023-03-11T18:31:39.245Z,82.80
2023-03-11T18:34:12.195Z,83.00
2023-03-11T18:36:39.926Z,82.77
2023-03-11T18:39:06.635Z,83.15
2023-03-11T18:41:35.120Z,84.01
2023-03-11T18:44:01.827Z,84.20
2023-03-11T18:46:31.596Z,83.57
2023-03-11T18:48:58.944Z,82.89
2023-03-11T18:51:26.244Z,82.52
2023-03-11T18:53:52.582Z,82.08
2023-03-11T18:56:19.769Z,81.65
2023-03-11T18:58:46.356Z,81.44
2023-03-11T19:01:15.712Z,81.72
2023-03-11T19:03:43.122Z,81.92
2023-03-11T19:06:11.928Z,82.01
2023-03-11T19:08:39.022Z,81.94
2023-03-11T19:11:07.565Z,81.67
2023-03-11T19:13:46.191Z,81.92
2023-03-11T19:16:15.019Z,81.41
2023-03-11T19:18:41.529Z,81.68
2023-03-11T19:21:10.500Z,81.77
2023-03-11T19:23:37.070Z,81.87
2023-03-11T19:26:03.843Z,82.47
2023-03-11T19:28:30.373Z,82.96
2023-03-11T19:30:58.285Z,82.66
2023-03-11T19:33:26.045Z,82.65
2023-03-11T19:36:04.029Z,83.62
2023-03-11T19:38:30.768Z,84.61
2023-03-11T19:41:12.137Z,85.45
2023-03-11T19:43:38.862Z,85.89
2023-03-11T19:46:07.415Z,86.29
2023-03-11T19:48:33.929Z,86.71
2023-03-11T19:51:02.142Z,86.89
2023-03-11T19:53:28.560Z,86.95
2023-03-11T19:55:56.879Z,87.27
2023-03-11T19:58:27.273Z,88.12
2023-03-11T20:00:55.500Z,88.48
2023-03-11T20:03:22.766Z,88.86
2023-03-11T20:05:52.477Z,89.02
2023-03-11T20:08:21.387Z,89.20
2023-03-11T20:10:50.060Z,89.88
2023-03-11T20:13:18.018Z,90.34
2023-03-11T20:15:44.514Z,91.37
2023-03-11T20:18:10.959Z,92.47
2023-03-11T20:20:39.378Z,92.56
2023-03-11T20:23:05.975Z,93.38
2023-03-11T20:25:32.720Z,94.17
2023-03-11T20:28:00.509Z,94.34
2023-03-11T20:30:28.386Z,95.17
2023-03-11T20:32:55.051Z,95.15
2023-03-11T20:35:22.022Z,95.99
2023-03-11T20:37:48.800Z,96.30
2023-03-11T20:40:17.206Z,96.32
2023-03-11T20:42:46.772Z,96.69
2023-03-11T20:45:16.036Z,97.37
2023-03-11T20:47:44.019Z,97.17
2023-03-11T20:50:14.383Z,97.38
2023-03-11T20:52:46.065Z,97.35
2023-03-11T20:55:13.186Z,97.86
2023-03-11T20:57:40.097Z,98.30
2023-03-11T21:00:11.495Z,98.83
2023-03-11T21:02:42.475Z,99.04
2023-03-11T21:05:10.577Z,99.01
2023-03-11T21:07:37.357Z,98.38
2023-03-11T21:10:11.231Z,99.08
2023-03-11T21:12:37.879Z,98.53
2023-03-11T21:15:06.059Z,98.06
2023-03-11T21:17:33.434Z,97.48
2023-03-11T21:20:00.009Z,97.40
2023-03-11T21:22:26.768Z,96.58
2023-03-11T21:24:54.368Z,96.48
2023-03-11T21:27:26.227Z,96.85
2023-03-11T21:29:54.315Z,97.26
2023-03-11T21:32:22.006Z,97.42
2023-03-11T21:34:48.738Z,97.66
2023-03-11T21:37:15.253Z,97.49
2023-03-11T21:39:42.146Z,97.66
2023-03-11T21:42:08.529Z,97.81
2023-03-11T21:44:35.019Z,97.53
2023-03-11T21:47:01.492Z,97.62
2023-03-11T21:49:28.040Z,98.13
2023-03-11T21:51:54.526Z,98.51
2023-03-11T21:54:21.037Z,98.42
2023-03-11T21:56:47.499Z,98.32
2023-03-11T21:59:14.033Z,98.41
2023-03-11T22:01:40.501Z,98.49
2023-03-11T22:04:07.045Z,98.95
2023-03-11T22:06:33.698Z,98.80
2023-03-11T22:09:01.048Z,99.43
2023-03-11T22:11:27.875Z,99.23
2023-03-11T22:13:54.461Z,99.87
2023-03-11T22:16:22.107Z,100.00
2023-03-11T22:18:49.561Z,100.00
2023-03-11T22:21:17.141Z,100.00
2023-03-11T22:23:44.896Z,100.00
2023-03-11T22:26:11.358Z,100.00
2023-03-11T22:28:37.786Z,100.00
2023-03-11T22:31:09.410Z,100.00
2023-03-11T22:33:36.573Z,100.00
2023-03-11T22:36:04.748Z,100.00
2023-03-11T22:38:32.541Z,100.00
2023-03-11T22:41:00.384Z,100.00
2023-03-11T22:43:27.265Z,100.00
2023-03-11T22:45:53.701Z,100.00
2023-03-11T22:48:20.155Z,100.00
2023-03-11T22:50:47.057Z,100.00
2023-03-11T22:53:13.604Z,100.00
2023-03-11T22:55:41.494Z,100.00
2023-03-11T22:58:08.338Z,100.00
2023-03-11T23:00:35.232Z,100.00
2023-03-11T23:03:01.669Z,100.00
2023-03-11T23:05:28.432Z,100.00
2023-03-11T23:07:54.955Z,100.00
2023-03-11T23:10:21.708Z,100.00
2023-03-11T23:12:49.162Z,100.00
2023-03-11T23:15:17.869Z,100.00
2023-03-11T23:17:44.423Z,100.00
2023-03-11T23:20:14.024Z,100.00
2023-03-11T23:22:41.677Z,100.00
2023-03-11T23:25:12.189Z,100.00
2023-03-11T23:27:38.564Z,100.00
2023-03-11T23:30:06.071Z,100.00
2023-03-11T23:32:32.514Z,100.00
2023-03-11T23:34:58.901Z,100.00
2023-03-11T23:37:25.264Z,100.00
2023-03-11T23:39:51.729Z,100.00
2023-03-11T23:42:25.514Z,100.00
2023-03-11T23:44:52.791Z,100.00
2023-03-11T23:47:19.344Z,100.00
2023-03-11T23:49:45.735Z,100.00
2023-03-11T23:52:12.119Z,100.00
2023-03-11T23:54:38.498Z,100.00
2023-03-11T23:57:04.906Z,100.00
2023-03-11T23:59:31.270Z,100.00
